Terminal Aerodrome Forecast
Issued by NWS Charleston, SC

Home | Current Version | Previous Version | Text Only | Print | Product List | Glossary On
Versions: 1 2 3 4 5 6 7 8 9 10 11 12 13 14 15 16 17 18 19 20 21 22 23 24 25 26 27
000
FTUS42 KCHS 280520
TAFSAV
TAF
KSAV 280520Z 2806/2906 04003KT P6SM BKN250
     FM281500 07010KT P6SM SCT060 BKN200
     FM281800 09013G20KT P6SM SCT020 SCT050 OVC150
     FM282130 09011KT P6SM SCT020 OVC070=

USA.gov is the U.S. government's official web portal to all federal, state and local government web resources and services.